createdAt,value
2022-10-05T00:01:27.069Z,6.01
2022-10-05T00:04:01.163Z,5.89
2022-10-05T00:06:31.137Z,5.91
2022-10-05T00:09:02.400Z,5.77
2022-10-05T00:11:30.406Z,5.70
2022-10-05T00:13:59.851Z,5.81
2022-10-05T00:16:27.903Z,5.97
2022-10-05T00:18:55.934Z,6.05
2022-10-05T00:21:26.252Z,6.10
2022-10-05T00:23:56.862Z,6.21
2022-10-05T00:26:27.735Z,6.28
2022-10-05T00:28:56.059Z,6.03
2022-10-05T00:31:26.566Z,5.93
2022-10-05T00:33:55.130Z,5.78
2022-10-05T00:36:23.769Z,5.89
2022-10-05T00:38:51.761Z,5.97
2022-10-05T00:41:25.977Z,5.89
2022-10-05T00:44:10.328Z,5.84
2022-10-05T00:46:51.555Z,5.84
2022-10-05T00:49:29.840Z,5.87
2022-10-05T00:52:07.619Z,5.59
2022-10-05T00:54:41.673Z,5.69
2022-10-05T00:57:24.903Z,5.81
2022-10-05T01:00:03.785Z,5.83
2022-10-05T01:02:42.134Z,5.97
2022-10-05T01:05:17.119Z,6.04
2022-10-05T01:07:51.033Z,6.03
2022-10-05T01:10:28.036Z,6.01
2022-10-05T01:13:05.969Z,5.93
2022-10-05T01:15:40.787Z,5.50
2022-10-05T01:18:17.112Z,5.29
2022-10-05T01:20:54.130Z,5.27
2022-10-05T01:23:58.908Z,5.24
2022-10-05T01:26:55.034Z,5.05
2022-10-05T01:29:28.944Z,5.01
2022-10-05T01:32:06.902Z,4.97
2022-10-05T01:34:39.648Z,4.94
2022-10-05T01:37:16.320Z,4.81
2022-10-05T01:39:51.549Z,4.90
2022-10-05T01:42:28.743Z,4.81
2022-10-05T01:45:06.202Z,4.70
2022-10-05T01:47:43.454Z,4.88
2022-10-05T01:50:20.751Z,4.80
2022-10-05T01:52:55.534Z,4.94
2022-10-05T01:55:32.535Z,5.01
2022-10-05T01:58:08.772Z,5.11
2022-10-05T02:00:46.408Z,5.18
2022-10-05T02:03:24.682Z,5.25
2022-10-05T02:05:57.678Z,5.24
2022-10-05T02:08:32.076Z,5.27
2022-10-05T02:11:04.758Z,5.34
2022-10-05T02:13:37.623Z,5.39
2022-10-05T02:16:15.204Z,5.45
2022-10-05T02:18:50.800Z,5.48
2022-10-05T02:21:20.986Z,5.45
2022-10-05T02:23:53.738Z,5.55
2022-10-05T02:26:23.541Z,5.59
2022-10-05T02:28:55.795Z,5.63
2022-10-05T02:31:31.807Z,5.59
2022-10-05T02:34:21.380Z,5.50
2022-10-05T02:36:54.792Z,5.39
2022-10-05T02:39:31.170Z,5.48
2022-10-05T02:42:08.583Z,5.38
2022-10-05T02:44:45.220Z,5.35
2022-10-05T02:47:27.982Z,5.52
2022-10-05T02:50:04.396Z,5.36
2022-10-05T02:52:41.445Z,5.53
2022-10-05T02:55:15.931Z,5.48
2022-10-05T02:57:52.130Z,5.56
2022-10-05T03:00:23.058Z,5.66
2022-10-05T03:03:01.103Z,5.53
2022-10-05T03:05:32.066Z,5.42
2022-10-05T03:08:04.841Z,5.50
2022-10-05T03:10:38.194Z,5.17
2022-10-05T03:13:14.046Z,5.21
2022-10-05T03:16:03.901Z,5.17
2022-10-05T03:18:46.195Z,5.27
2022-10-05T03:21:30.171Z,5.24
2022-10-05T03:24:17.897Z,5.35
2022-10-05T03:26:52.555Z,5.31
2022-10-05T03:29:30.263Z,5.15
2022-10-05T03:32:05.256Z,5.35
2022-10-05T03:34:38.943Z,5.32
2022-10-05T03:37:15.076Z,5.18
2022-10-05T03:39:48.116Z,5.28
2022-10-05T03:42:25.352Z,5.22
2022-10-05T03:45:02.812Z,5.21
2022-10-05T03:47:41.145Z,5.11
2022-10-05T03:50:38.211Z,4.91
2022-10-05T03:53:08.670Z,4.80
2022-10-05T03:55:40.688Z,4.71
2022-10-05T03:58:16.057Z,4.60
2022-10-05T04:00:48.249Z,4.53
2022-10-05T04:03:22.414Z,4.52
2022-10-05T04:05:56.319Z,4.53
2022-10-05T04:08:33.711Z,4.64
2022-10-05T04:11:07.172Z,4.69
2022-10-05T04:13:38.500Z,4.81
2022-10-05T04:16:13.991Z,4.66
2022-10-05T04:18:46.558Z,4.67
2022-10-05T04:21:23.958Z,4.64
2022-10-05T04:24:00.446Z,4.73
2022-10-05T04:26:35.119Z,4.74
2022-10-05T04:29:08.928Z,4.79
2022-10-05T04:31:53.386Z,4.69
2022-10-05T04:34:40.096Z,4.53
2022-10-05T04:37:11.082Z,4.36
2022-10-05T04:39:47.716Z,4.32
2022-10-05T04:42:25.659Z,4.38
2022-10-05T04:45:09.781Z,4.63
2022-10-05T04:48:17.232Z,4.39
2022-10-05T04:50:59.379Z,4.48
2022-10-05T04:53:33.070Z,4.56
2022-10-05T04:56:09.206Z,4.67
2022-10-05T04:58:53.861Z,4.85
2022-10-05T05:01:40.585Z,4.84
2022-10-05T05:04:33.432Z,4.56
2022-10-05T05:07:20.098Z,4.53
2022-10-05T05:10:13.622Z,4.57
2022-10-05T05:12:50.910Z,4.62
2022-10-05T05:15:30.239Z,4.24
2022-10-05T05:18:15.991Z,3.97
2022-10-05T05:20:56.088Z,4.12
2022-10-05T05:23:32.882Z,4.25
2022-10-05T05:26:12.873Z,4.38
2022-10-05T05:28:45.697Z,4.46
2022-10-05T05:31:24.762Z,4.42
2022-10-05T05:33:59.857Z,4.45
2022-10-05T05:36:49.923Z,4.57
2022-10-05T05:39:25.980Z,4.73
2022-10-05T05:42:03.263Z,4.81
2022-10-05T05:44:39.054Z,4.91
2022-10-05T05:47:19.999Z,4.97
2022-10-05T05:50:11.646Z,5.12
2022-10-05T05:52:44.225Z,5.27
2022-10-05T05:55:20.484Z,5.24
2022-10-05T05:57:56.650Z,5.34
2022-10-05T06:00:27.832Z,5.43
2022-10-05T06:03:07.541Z,5.49
2022-10-05T06:05:42.457Z,5.71
2022-10-05T06:08:18.094Z,5.89
2022-10-05T06:10:56.167Z,5.97
2022-10-05T06:13:30.062Z,6.18
2022-10-05T06:16:05.329Z,6.32
2022-10-05T06:18:34.060Z,6.46
2022-10-05T06:21:07.987Z,6.59
2022-10-05T06:23:45.360Z,6.72
2022-10-05T06:26:26.724Z,6.84
2022-10-05T06:29:00.322Z,6.91
2022-10-05T06:31:54.197Z,7.05
2022-10-05T06:34:40.015Z,7.17
2022-10-05T06:37:14.570Z,7.22
2022-10-05T06:40:00.949Z,7.28
2022-10-05T06:42:47.534Z,7.39
2022-10-05T06:45:46.532Z,7.51
2022-10-05T06:48:51.035Z,7.96
2022-10-05T06:51:41.475Z,8.07
2022-10-05T06:54:28.357Z,8.21
2022-10-05T06:57:04.167Z,8.42
2022-10-05T06:59:39.011Z,8.46
2022-10-05T07:02:20.098Z,8.35
2022-10-05T07:05:16.884Z,8.55
2022-10-05T07:07:54.840Z,8.62
2022-10-05T07:10:32.142Z,8.72
2022-10-05T07:13:30.707Z,8.72
2022-10-05T07:16:06.556Z,8.84
2022-10-05T07:18:48.139Z,8.97
2022-10-05T07:21:24.986Z,9.18
2022-10-05T07:24:03.774Z,9.31
2022-10-05T07:26:36.837Z,9.47
2022-10-05T07:29:20.935Z,9.52
2022-10-05T07:31:57.010Z,9.76
2022-10-05T07:34:37.941Z,9.97
2022-10-05T07:37:28.131Z,10.14
2022-10-05T07:40:05.814Z,10.14
2022-10-05T07:42:51.872Z,10.27
2022-10-05T07:45:29.491Z,10.40
2022-10-05T07:48:03.813Z,10.58
2022-10-05T07:50:39.766Z,10.58
2022-10-05T07:53:16.854Z,10.82
2022-10-05T07:55:51.273Z,10.86
2022-10-05T07:58:24.738Z,10.85
2022-10-05T08:01:02.935Z,11.10
2022-10-05T08:03:52.273Z,11.17
2022-10-05T08:06:35.948Z,11.53
2022-10-05T08:09:13.821Z,11.70
2022-10-05T08:11:54.571Z,11.91
2022-10-05T08:14:29.765Z,11.99
2022-10-05T08:17:01.417Z,12.18
2022-10-05T08:19:40.377Z,12.46
2022-10-05T08:22:13.935Z,12.69
2022-10-05T08:24:46.964Z,12.99
2022-10-05T08:27:21.458Z,13.16
2022-10-05T08:29:56.922Z,13.40
2022-10-05T08:32:26.884Z,13.56
2022-10-05T08:35:00.360Z,13.52
2022-10-05T08:37:32.665Z,13.81
2022-10-05T08:40:27.064Z,13.88
2022-10-05T08:43:07.161Z,14.19
2022-10-05T08:46:00.952Z,14.22
2022-10-05T08:48:56.359Z,14.26
2022-10-05T08:52:05.624Z,14.57
2022-10-05T08:54:46.816Z,14.70
2022-10-05T08:57:44.903Z,15.04
2022-10-05T09:00:15.225Z,15.04
2022-10-05T09:03:13.196Z,15.12
2022-10-05T09:06:02.706Z,15.46
2022-10-05T09:08:59.554Z,15.53
2022-10-05T09:11:36.238Z,15.71
2022-10-05T09:14:29.289Z,15.83
2022-10-05T09:17:35.903Z,15.94
2022-10-05T09:20:28.673Z,16.10
2022-10-05T09:23:04.183Z,16.18
2022-10-05T09:25:54.284Z,16.22
2022-10-05T09:28:30.493Z,16.55
2022-10-05T09:31:08.268Z,16.69
2022-10-05T09:34:04.512Z,16.82
2022-10-05T09:37:20.212Z,16.68
2022-10-05T09:40:20.745Z,16.48
2022-10-05T09:43:14.741Z,16.17
2022-10-05T09:46:04.587Z,16.41
2022-10-05T09:48:56.877Z,16.42
2022-10-05T09:52:01.199Z,16.25
2022-10-05T09:55:08.306Z,16.47
2022-10-05T09:58:03.616Z,16.59
2022-10-05T10:00:40.865Z,16.49
2022-10-05T10:03:44.392Z,17.06
2022-10-05T10:06:40.404Z,17.34
2022-10-05T10:09:35.158Z,17.31
2022-10-05T10:12:28.457Z,17.04
2022-10-05T10:15:18.498Z,17.10
2022-10-05T10:18:04.675Z,17.04
2022-10-05T10:20:39.866Z,17.35
2022-10-05T10:23:31.740Z,17.57
2022-10-05T10:26:34.076Z,17.68
2022-10-05T10:29:37.054Z,17.54
2022-10-05T10:32:20.938Z,17.54
2022-10-05T10:35:12.902Z,17.83
2022-10-05T10:38:22.331Z,17.95
2022-10-05T10:41:06.898Z,18.12
2022-10-05T10:44:18.156Z,17.87
2022-10-05T10:46:54.814Z,18.33
2022-10-05T10:49:47.912Z,18.29
2022-10-05T10:52:34.307Z,18.26
2022-10-05T10:55:28.479Z,18.17
2022-10-05T10:58:16.323Z,18.38
2022-10-05T11:00:54.686Z,18.68
2022-10-05T11:03:50.330Z,18.76
2022-10-05T11:07:06.703Z,18.58
2022-10-05T11:10:19.872Z,18.45
2022-10-05T11:13:24.790Z,18.75
2022-10-05T11:16:25.237Z,18.52
2022-10-05T11:19:12.198Z,18.62
2022-10-05T11:21:55.527Z,18.52
2022-10-05T11:24:50.587Z,18.89
2022-10-05T11:27:36.999Z,18.72
2022-10-05T11:30:37.012Z,18.73
2022-10-05T11:33:42.932Z,18.51
2022-10-05T11:36:32.623Z,18.84
2022-10-05T11:39:30.456Z,18.92
2022-10-05T11:42:16.500Z,18.82
2022-10-05T11:45:21.900Z,18.84
2022-10-05T11:48:10.934Z,18.91
2022-10-05T11:50:44.493Z,19.23
2022-10-05T11:53:17.105Z,19.28
2022-10-05T11:56:00.656Z,19.27
2022-10-05T11:58:33.176Z,19.34
2022-10-05T12:01:07.759Z,19.17
2022-10-05T12:03:49.270Z,18.94
2022-10-05T12:06:25.726Z,18.91
2022-10-05T12:09:04.767Z,18.98
2022-10-05T12:11:58.537Z,18.82
2022-10-05T12:14:38.234Z,18.94
2022-10-05T12:17:17.961Z,19.22
2022-10-05T12:19:52.446Z,19.00
2022-10-05T12:22:23.759Z,19.09
2022-10-05T12:25:06.653Z,19.10
2022-10-05T12:27:39.841Z,19.05
2022-10-05T12:30:15.958Z,19.24
2022-10-05T12:32:55.909Z,19.16
2022-10-05T12:35:50.185Z,19.13
2022-10-05T12:38:28.522Z,19.17
2022-10-05T12:41:04.311Z,19.16
2022-10-05T12:43:41.602Z,19.06
2022-10-05T12:46:20.678Z,19.13
2022-10-05T12:49:19.211Z,19.22
2022-10-05T12:51:57.035Z,19.20
2022-10-05T12:54:35.025Z,19.37
2022-10-05T12:57:08.422Z,19.37
2022-10-05T12:59:41.923Z,19.22
2022-10-05T13:02:21.721Z,19.12
2022-10-05T13:04:56.610Z,19.26
2022-10-05T13:07:41.912Z,19.41
2022-10-05T13:10:22.586Z,19.24
2022-10-05T13:12:56.818Z,19.33
2022-10-05T13:15:33.864Z,19.37
2022-10-05T13:18:14.018Z,19.50
2022-10-05T13:20:46.982Z,19.33
2022-10-05T13:23:22.797Z,19.15
2022-10-05T13:25:57.636Z,19.20
2022-10-05T13:28:31.213Z,19.22
2022-10-05T13:31:04.705Z,19.31
2022-10-05T13:33:54.395Z,19.30
2022-10-05T13:36:31.374Z,19.15
2022-10-05T13:39:06.134Z,18.94
2022-10-05T13:41:50.720Z,18.91
2022-10-05T13:44:26.944Z,18.91
2022-10-05T13:47:02.862Z,18.85
2022-10-05T13:49:38.005Z,18.96
2022-10-05T13:52:21.163Z,18.78
2022-10-05T13:54:59.900Z,18.73
2022-10-05T13:57:48.058Z,18.67
2022-10-05T14:00:22.696Z,18.75
2022-10-05T14:02:56.568Z,18.64
2022-10-05T14:05:27.011Z,18.65
2022-10-05T14:07:58.500Z,18.61
2022-10-05T14:10:35.262Z,18.72
2022-10-05T14:13:19.519Z,18.85
2022-10-05T14:16:04.898Z,18.92
2022-10-05T14:18:35.401Z,18.98
2022-10-05T14:21:16.461Z,18.72
2022-10-05T14:23:45.058Z,18.62
2022-10-05T14:26:32.630Z,18.57
2022-10-05T14:29:03.635Z,18.43
2022-10-05T14:31:58.301Z,18.50
2022-10-05T14:34:31.925Z,18.41
2022-10-05T14:37:04.820Z,18.34
2022-10-05T14:39:35.976Z,18.33
2022-10-05T14:42:17.906Z,18.26
2022-10-05T14:44:46.783Z,18.12
2022-10-05T14:47:26.614Z,18.13
2022-10-05T14:50:14.008Z,18.14
2022-10-05T14:52:51.859Z,18.16
2022-10-05T14:55:37.394Z,18.09
2022-10-05T14:58:18.068Z,17.97
2022-10-05T15:00:56.997Z,17.87
2022-10-05T15:03:38.261Z,17.90
2022-10-05T15:06:13.846Z,17.82
2022-10-05T15:08:54.141Z,17.58
2022-10-05T15:11:34.523Z,17.47
2022-10-05T15:14:14.052Z,17.44
2022-10-05T15:16:42.897Z,17.42
2022-10-05T15:19:17.919Z,17.45
2022-10-05T15:22:03.719Z,17.49
2022-10-05T15:24:43.758Z,17.41
2022-10-05T15:27:26.286Z,17.27
2022-10-05T15:30:04.882Z,17.07
2022-10-05T15:32:44.769Z,16.96
2022-10-05T15:35:43.943Z,16.86
2022-10-05T15:38:23.765Z,16.80
2022-10-05T15:41:02.642Z,16.77
2022-10-05T15:43:47.083Z,16.63
2022-10-05T15:46:23.348Z,16.48
2022-10-05T15:49:04.114Z,16.38
2022-10-05T15:51:50.250Z,16.32
2022-10-05T15:54:42.606Z,16.40
2022-10-05T15:57:20.445Z,16.29
2022-10-05T15:59:59.413Z,16.17
2022-10-05T16:02:38.837Z,16.28
2022-10-05T16:05:43.923Z,16.28
2022-10-05T16:08:41.375Z,16.35
2022-10-05T16:11:19.277Z,16.38
2022-10-05T16:13:59.768Z,16.22
2022-10-05T16:16:35.158Z,16.07
2022-10-05T16:19:12.671Z,15.94
2022-10-05T16:21:52.995Z,15.93
2022-10-05T16:24:42.567Z,16.03
2022-10-05T16:27:17.357Z,16.10
2022-10-05T16:29:52.870Z,16.06
2022-10-05T16:32:24.424Z,15.97
2022-10-05T16:35:03.985Z,15.96
2022-10-05T16:37:44.375Z,15.76
2022-10-05T16:40:19.326Z,15.73
2022-10-05T16:42:58.612Z,15.73
2022-10-05T16:45:44.965Z,15.76
2022-10-05T16:48:21.080Z,15.85
2022-10-05T16:50:55.655Z,15.86
2022-10-05T16:53:28.292Z,15.50
2022-10-05T16:56:02.948Z,15.48
2022-10-05T16:58:44.656Z,15.43
2022-10-05T17:01:24.473Z,15.53
2022-10-05T17:04:10.478Z,15.62
2022-10-05T17:06:54.167Z,15.32
2022-10-05T17:09:42.011Z,15.07
2022-10-05T17:12:30.338Z,14.80
2022-10-05T17:15:29.727Z,14.74
2022-10-05T17:18:24.826Z,14.62
2022-10-05T17:20:59.063Z,14.66
2022-10-05T17:23:51.718Z,14.76
2022-10-05T17:26:45.375Z,14.45
2022-10-05T17:29:18.625Z,14.28
2022-10-05T17:32:10.833Z,14.33
2022-10-05T17:34:40.617Z,14.46
2022-10-05T17:37:35.259Z,14.46
2022-10-05T17:41:06.495Z,14.35
2022-10-05T17:43:36.036Z,14.43
2022-10-05T17:46:06.781Z,13.78
2022-10-05T17:49:08.350Z,14.07
2022-10-05T17:52:16.860Z,14.15
2022-10-05T17:55:30.241Z,14.14
2022-10-05T17:58:04.041Z,14.08
2022-10-05T18:00:42.099Z,13.56
2022-10-05T18:03:36.447Z,13.40
2022-10-05T18:06:31.910Z,13.52
2022-10-05T18:09:21.959Z,13.29
2022-10-05T18:12:25.356Z,13.49
2022-10-05T18:15:22.312Z,13.30
2022-10-05T18:17:54.707Z,13.42
2022-10-05T18:20:31.603Z,13.33
2022-10-05T18:23:35.901Z,13.22
2022-10-05T18:26:09.211Z,13.19
2022-10-05T18:28:54.101Z,13.22
2022-10-05T18:31:34.259Z,12.96
2022-10-05T18:34:23.072Z,12.73
2022-10-05T18:37:01.915Z,12.73
2022-10-05T18:39:53.052Z,12.68
2022-10-05T18:42:31.402Z,12.67
2022-10-05T18:45:09.296Z,12.91
2022-10-05T18:47:48.130Z,12.75
2022-10-05T18:50:26.884Z,12.61
2022-10-05T18:53:07.796Z,12.46
2022-10-05T18:55:39.639Z,12.43
2022-10-05T18:58:18.076Z,12.61
2022-10-05T19:01:00.043Z,12.47
2022-10-05T19:03:36.643Z,12.16
2022-10-05T19:06:15.491Z,12.23
2022-10-05T19:08:53.041Z,12.03
2022-10-05T19:11:30.192Z,12.08
2022-10-05T19:14:04.774Z,11.96
2022-10-05T19:16:48.554Z,12.23
2022-10-05T19:19:35.079Z,12.23
2022-10-05T19:22:09.065Z,12.37
2022-10-05T19:24:50.848Z,12.12
2022-10-05T19:27:28.186Z,11.96
2022-10-05T19:30:14.787Z,11.89
2022-10-05T19:33:08.450Z,11.89
2022-10-05T19:35:53.759Z,11.78
2022-10-05T19:38:31.801Z,11.68
2022-10-05T19:41:11.387Z,11.71
2022-10-05T19:44:02.267Z,11.61
2022-10-05T19:46:54.728Z,11.70
2022-10-05T19:49:59.123Z,11.74
2022-10-05T19:52:37.765Z,11.81
2022-10-05T19:55:16.057Z,11.70
2022-10-05T19:57:48.798Z,11.65
2022-10-05T20:00:22.397Z,11.77
2022-10-05T20:03:10.319Z,11.68
2022-10-05T20:05:38.584Z,11.96
2022-10-05T20:08:08.526Z,11.67
2022-10-05T20:10:36.763Z,11.63
2022-10-05T20:13:08.717Z,11.64
2022-10-05T20:15:55.082Z,11.57
2022-10-05T20:19:06.729Z,11.63
2022-10-05T20:21:43.864Z,11.64
2022-10-05T20:24:14.797Z,11.64
2022-10-05T20:27:05.219Z,11.72
2022-10-05T20:29:36.551Z,11.71
2022-10-05T20:32:08.724Z,11.81
2022-10-05T20:34:38.056Z,11.31
2022-10-05T20:37:06.035Z,11.45
2022-10-05T20:39:35.418Z,11.31
2022-10-05T20:42:03.823Z,11.71
2022-10-05T20:44:32.321Z,11.43
2022-10-05T20:47:01.501Z,11.31
2022-10-05T20:49:31.082Z,11.45
2022-10-05T20:52:00.093Z,11.51
2022-10-05T20:54:28.611Z,11.57
2022-10-05T20:56:58.380Z,11.70
2022-10-05T20:59:26.949Z,11.23
2022-10-05T21:01:55.746Z,11.38
2022-10-05T21:04:25.336Z,11.31
2022-10-05T21:06:54.282Z,11.22
2022-10-05T21:09:22.904Z,11.41
2022-10-05T21:11:52.989Z,11.33
2022-10-05T21:14:23.477Z,10.99
2022-10-05T21:16:52.564Z,11.09
2022-10-05T21:19:20.763Z,10.88
2022-10-05T21:21:48.789Z,10.73
2022-10-05T21:24:17.390Z,10.79
2022-10-05T21:26:46.032Z,10.96
2022-10-05T21:29:14.283Z,10.93
2022-10-05T21:31:43.690Z,10.76
2022-10-05T21:34:11.852Z,10.95
2022-10-05T21:36:40.093Z,10.89
2022-10-05T21:39:08.143Z,10.50
2022-10-05T21:41:36.154Z,10.31
2022-10-05T21:44:06.331Z,10.48
2022-10-05T21:46:37.243Z,10.61
2022-10-05T21:49:07.326Z,10.27
2022-10-05T21:51:36.639Z,10.27
2022-10-05T21:54:10.370Z,10.17
2022-10-05T21:56:41.576Z,10.38
2022-10-05T21:59:12.787Z,10.30
2022-10-05T22:01:41.081Z,10.55
2022-10-05T22:04:10.536Z,10.62
2022-10-05T22:06:38.797Z,10.58
2022-10-05T22:09:07.329Z,10.61
2022-10-05T22:11:35.513Z,10.41
2022-10-05T22:14:03.584Z,10.36
2022-10-05T22:16:33.469Z,10.03
2022-10-05T22:19:05.204Z,9.69
2022-10-05T22:21:37.945Z,9.83
2022-10-05T22:24:06.719Z,9.63
2022-10-05T22:26:36.025Z,9.63
2022-10-05T22:29:04.873Z,9.56
2022-10-05T22:31:32.955Z,9.69
2022-10-05T22:34:01.014Z,9.82
2022-10-05T22:36:29.465Z,9.58
2022-10-05T22:38:58.854Z,9.86
2022-10-05T22:41:27.055Z,9.97
2022-10-05T22:43:55.001Z,9.65
2022-10-05T22:46:23.074Z,9.74
2022-10-05T22:48:51.334Z,9.45
2022-10-05T22:51:19.554Z,9.27
2022-10-05T22:53:47.531Z,9.38
2022-10-05T22:56:17.335Z,9.38
2022-10-05T22:58:45.872Z,9.38
2022-10-05T23:01:16.801Z,9.27
2022-10-05T23:03:45.580Z,9.28
2022-10-05T23:06:15.645Z,9.17
2022-10-05T23:08:44.304Z,9.14
2022-10-05T23:11:15.068Z,9.06
2022-10-05T23:13:45.047Z,8.90
2022-10-05T23:16:15.415Z,9.08
2022-10-05T23:18:44.259Z,9.14
2022-10-05T23:21:12.731Z,8.96
2022-10-05T23:23:42.672Z,9.03
2022-10-05T23:26:12.459Z,8.99
2022-10-05T23:28:43.115Z,9.16
2022-10-05T23:31:12.703Z,9.07
2022-10-05T23:33:40.730Z,9.10
2022-10-05T23:36:11.155Z,9.21
2022-10-05T23:38:39.130Z,9.35
2022-10-05T23:41:08.764Z,9.31
2022-10-05T23:43:37.337Z,9.34
2022-10-05T23:46:07.253Z,9.49
2022-10-05T23:48:38.692Z,9.31
2022-10-05T23:51:07.853Z,9.45
2022-10-05T23:53:36.361Z,9.38
2022-10-05T23:56:05.015Z,9.34
2022-10-05T23:58:33.104Z,9.47
